sensor_id;sensor_type;location;lat;lon;timestamp;P1;durP1;ratioP1;P2;durP2;ratioP2
68188;SDS011;66299;47.514;19.218;2024-02-28T00:01:07;25.65;;;14.15;;
68188;SDS011;66299;47.514;19.218;2024-02-28T00:03:37;29.60;;;13.57;;
68188;SDS011;66299;47.514;19.218;2024-02-28T00:06:07;25.65;;;13.75;;
68188;SDS011;66299;47.514;19.218;2024-02-28T00:08:37;24.90;;;14.15;;
68188;SDS011;66299;47.514;19.218;2024-02-28T00:11:07;26.10;;;14.00;;
68188;SDS011;66299;47.514;19.218;2024-02-28T00:13:38;25.73;;;14.18;;
68188;SDS011;66299;47.514;19.218;2024-02-28T00:16:07;28.83;;;13.85;;
68188;SDS011;66299;47.514;19.218;2024-02-28T00:18:37;25.10;;;13.82;;
68188;SDS011;66299;47.514;19.218;2024-02-28T00:21:07;30.65;;;14.50;;
68188;SDS011;66299;47.514;19.218;2024-02-28T00:23:35;23.77;;;14.07;;
68188;SDS011;66299;47.514;19.218;2024-02-28T00:26:05;28.58;;;14.07;;
68188;SDS011;66299;47.514;19.218;2024-02-28T00:28:35;27.63;;;14.45;;
68188;SDS011;66299;47.514;19.218;2024-02-28T00:31:04;27.42;;;14.60;;
68188;SDS011;66299;47.514;19.218;2024-02-28T00:33:32;30.30;;;14.38;;
68188;SDS011;66299;47.514;19.218;2024-02-28T00:36:01;28.83;;;14.85;;
68188;SDS011;66299;47.514;19.218;2024-02-28T00:38:29;30.27;;;14.43;;
68188;SDS011;66299;47.514;19.218;2024-02-28T00:40:58;28.95;;;14.77;;
68188;SDS011;66299;47.514;19.218;2024-02-28T00:43:30;27.58;;;15.48;;
68188;SDS011;66299;47.514;19.218;2024-02-28T00:45:58;31.55;;;14.60;;
68188;SDS011;66299;47.514;19.218;2024-02-28T00:48:27;30.25;;;15.00;;
68188;SDS011;66299;47.514;19.218;2024-02-28T00:50:55;28.85;;;15.38;;
68188;SDS011;66299;47.514;19.218;2024-02-28T00:53:24;28.70;;;15.52;;
68188;SDS011;66299;47.514;19.218;2024-02-28T00:55:53;34.78;;;16.05;;
68188;SDS011;66299;47.514;19.218;2024-02-28T00:58:22;28.65;;;15.00;;
68188;SDS011;66299;47.514;19.218;2024-02-28T01:00:53;28.98;;;15.38;;
68188;SDS011;66299;47.514;19.218;2024-02-28T01:03:23;29.45;;;14.75;;
68188;SDS011;66299;47.514;19.218;2024-02-28T01:05:52;27.75;;;14.88;;
68188;SDS011;66299;47.514;19.218;2024-02-28T01:08:20;31.27;;;15.23;;
68188;SDS011;66299;47.514;19.218;2024-02-28T01:10:49;28.30;;;14.48;;
68188;SDS011;66299;47.514;19.218;2024-02-28T01:13:17;27.27;;;14.45;;
68188;SDS011;66299;47.514;19.218;2024-02-28T01:15:46;25.13;;;14.65;;
68188;SDS011;66299;47.514;19.218;2024-02-28T01:18:16;29.13;;;14.65;;
68188;SDS011;66299;47.514;19.218;2024-02-28T01:20:46;30.92;;;15.23;;
68188;SDS011;66299;47.514;19.218;2024-02-28T01:23:14;30.20;;;14.80;;
68188;SDS011;66299;47.514;19.218;2024-02-28T01:25:43;25.45;;;14.90;;
68188;SDS011;66299;47.514;19.218;2024-02-28T01:28:12;27.85;;;14.82;;
68188;SDS011;66299;47.514;19.218;2024-02-28T01:30:41;29.15;;;15.63;;
68188;SDS011;66299;47.514;19.218;2024-02-28T01:33:10;27.08;;;14.65;;
68188;SDS011;66299;47.514;19.218;2024-02-28T01:35:41;27.08;;;14.68;;
68188;SDS011;66299;47.514;19.218;2024-02-28T01:38:09;28.10;;;15.23;;
68188;SDS011;66299;47.514;19.218;2024-02-28T01:40:38;27.58;;;14.85;;
68188;SDS011;66299;47.514;19.218;2024-02-28T01:43:06;29.95;;;15.45;;
68188;SDS011;66299;47.514;19.218;2024-02-28T01:45:36;27.75;;;15.35;;
68188;SDS011;66299;47.514;19.218;2024-02-28T01:48:05;31.00;;;15.75;;
68188;SDS011;66299;47.514;19.218;2024-02-28T01:50:36;28.33;;;15.45;;
68188;SDS011;66299;47.514;19.218;2024-02-28T01:53:06;27.58;;;15.60;;
68188;SDS011;66299;47.514;19.218;2024-02-28T01:55:38;28.73;;;16.15;;
68188;SDS011;66299;47.514;19.218;2024-02-28T01:58:07;30.98;;;16.65;;
68188;SDS011;66299;47.514;19.218;2024-02-28T02:00:36;29.60;;;16.35;;
68188;SDS011;66299;47.514;19.218;2024-02-28T02:03:08;30.42;;;16.88;;
68188;SDS011;66299;47.514;19.218;2024-02-28T02:05:36;28.50;;;16.55;;
68188;SDS011;66299;47.514;19.218;2024-02-28T02:08:09;29.35;;;17.08;;
68188;SDS011;66299;47.514;19.218;2024-02-28T02:10:38;29.88;;;16.35;;
68188;SDS011;66299;47.514;19.218;2024-02-28T02:13:08;30.23;;;17.45;;
68188;SDS011;66299;47.514;19.218;2024-02-28T02:15:38;30.73;;;17.98;;
68188;SDS011;66299;47.514;19.218;2024-02-28T02:18:08;33.92;;;17.98;;
68188;SDS011;66299;47.514;19.218;2024-02-28T02:20:40;28.30;;;17.10;;
68188;SDS011;66299;47.514;19.218;2024-02-28T02:23:13;34.15;;;18.52;;
68188;SDS011;66299;47.514;19.218;2024-02-28T02:25:43;37.65;;;19.52;;
68188;SDS011;66299;47.514;19.218;2024-02-28T02:28:13;33.10;;;18.88;;
68188;SDS011;66299;47.514;19.218;2024-02-28T02:30:42;31.95;;;18.88;;
68188;SDS011;66299;47.514;19.218;2024-02-28T02:33:14;32.13;;;18.85;;
68188;SDS011;66299;47.514;19.218;2024-02-28T02:35:42;32.13;;;18.92;;
68188;SDS011;66299;47.514;19.218;2024-02-28T02:38:13;34.83;;;19.63;;
68188;SDS011;66299;47.514;19.218;2024-02-28T02:40:42;41.20;;;19.55;;
68188;SDS011;66299;47.514;19.218;2024-02-28T02:43:10;33.83;;;19.20;;
68188;SDS011;66299;47.514;19.218;2024-02-28T02:45:40;35.83;;;19.10;;
68188;SDS011;66299;47.514;19.218;2024-02-28T02:48:10;31.30;;;18.88;;
68188;SDS011;66299;47.514;19.218;2024-02-28T02:50:41;34.22;;;18.77;;
68188;SDS011;66299;47.514;19.218;2024-02-28T02:53:10;34.60;;;18.75;;
68188;SDS011;66299;47.514;19.218;2024-02-28T02:55:41;34.38;;;18.85;;
68188;SDS011;66299;47.514;19.218;2024-02-28T02:58:11;34.05;;;18.60;;
68188;SDS011;66299;47.514;19.218;2024-02-28T03:00:43;34.85;;;18.67;;
68188;SDS011;66299;47.514;19.218;2024-02-28T03:03:12;38.20;;;17.98;;
68188;SDS011;66299;47.514;19.218;2024-02-28T03:05:43;34.10;;;18.45;;
68188;SDS011;66299;47.514;19.218;2024-02-28T03:08:12;31.27;;;18.40;;
68188;SDS011;66299;47.514;19.218;2024-02-28T03:10:44;32.60;;;18.80;;
68188;SDS011;66299;47.514;19.218;2024-02-28T03:13:13;34.30;;;18.33;;
68188;SDS011;66299;47.514;19.218;2024-02-28T03:15:42;33.05;;;17.70;;
68188;SDS011;66299;47.514;19.218;2024-02-28T03:18:12;32.53;;;17.75;;
68188;SDS011;66299;47.514;19.218;2024-02-28T03:20:41;34.03;;;16.67;;
68188;SDS011;66299;47.514;19.218;2024-02-28T03:23:10;33.55;;;17.48;;
68188;SDS011;66299;47.514;19.218;2024-02-28T03:25:40;37.25;;;17.30;;
68188;SDS011;66299;47.514;19.218;2024-02-28T03:28:10;30.70;;;16.67;;
68188;SDS011;66299;47.514;19.218;2024-02-28T03:30:40;31.90;;;17.00;;
68188;SDS011;66299;47.514;19.218;2024-02-28T03:33:09;33.00;;;16.65;;
68188;SDS011;66299;47.514;19.218;2024-02-28T03:35:39;30.75;;;16.65;;
68188;SDS011;66299;47.514;19.218;2024-02-28T03:38:07;32.17;;;16.52;;
68188;SDS011;66299;47.514;19.218;2024-02-28T03:40:37;27.77;;;15.80;;
68188;SDS011;66299;47.514;19.218;2024-02-28T03:43:06;31.13;;;16.35;;
68188;SDS011;66299;47.514;19.218;2024-02-28T03:45:37;28.52;;;15.77;;
68188;SDS011;66299;47.514;19.218;2024-02-28T03:48:07;29.90;;;15.68;;
68188;SDS011;66299;47.514;19.218;2024-02-28T03:50:35;32.67;;;16.52;;
68188;SDS011;66299;47.514;19.218;2024-02-28T03:53:04;29.27;;;16.25;;
68188;SDS011;66299;47.514;19.218;2024-02-28T03:55:33;29.65;;;16.00;;
68188;SDS011;66299;47.514;19.218;2024-02-28T03:58:03;29.65;;;16.02;;
68188;SDS011;66299;47.514;19.218;2024-02-28T04:03:07;28.58;;;15.20;;
68188;SDS011;66299;47.514;19.218;2024-02-28T04:05:37;28.40;;;15.35;;
68188;SDS011;66299;47.514;19.218;2024-02-28T04:08:07;30.27;;;16.00;;
68188;SDS011;66299;47.514;19.218;2024-02-28T04:10:35;28.20;;;15.30;;
68188;SDS011;66299;47.514;19.218;2024-02-28T04:13:04;27.25;;;14.88;;
68188;SDS011;66299;47.514;19.218;2024-02-28T04:15:32;28.00;;;15.50;;
68188;SDS011;66299;47.514;19.218;2024-02-28T04:18:02;28.15;;;15.23;;
68188;SDS011;66299;47.514;19.218;2024-02-28T04:20:32;28.30;;;14.95;;
68188;SDS011;66299;47.514;19.218;2024-02-28T04:23:01;26.77;;;14.13;;
68188;SDS011;66299;47.514;19.218;2024-02-28T04:25:30;25.38;;;14.70;;
68188;SDS011;66299;47.514;19.218;2024-02-28T04:27:58;27.15;;;14.95;;
68188;SDS011;66299;47.514;19.218;2024-02-28T04:30:29;27.58;;;14.40;;
68188;SDS011;66299;47.514;19.218;2024-02-28T04:32:58;25.67;;;14.30;;
68188;SDS011;66299;47.514;19.218;2024-02-28T04:35:26;26.98;;;14.23;;
68188;SDS011;66299;47.514;19.218;2024-02-28T04:37:56;30.52;;;14.48;;
68188;SDS011;66299;47.514;19.218;2024-02-28T04:40:25;28.23;;;13.90;;
68188;SDS011;66299;47.514;19.218;2024-02-28T04:42:54;28.25;;;14.02;;
68188;SDS011;66299;47.514;19.218;2024-02-28T04:45:22;25.70;;;13.30;;
68188;SDS011;66299;47.514;19.218;2024-02-28T04:47:51;26.83;;;13.82;;
68188;SDS011;66299;47.514;19.218;2024-02-28T04:50:21;26.63;;;14.13;;
68188;SDS011;66299;47.514;19.218;2024-02-28T04:52:51;31.85;;;14.80;;
68188;SDS011;66299;47.514;19.218;2024-02-28T04:55:21;30.50;;;13.52;;
68188;SDS011;66299;47.514;19.218;2024-02-28T04:57:51;29.40;;;13.82;;
68188;SDS011;66299;47.514;19.218;2024-02-28T05:00:19;26.80;;;13.63;;
68188;SDS011;66299;47.514;19.218;2024-02-28T05:02:48;25.95;;;13.40;;
68188;SDS011;66299;47.514;19.218;2024-02-28T05:05:17;27.77;;;14.13;;
68188;SDS011;66299;47.514;19.218;2024-02-28T05:07:46;28.25;;;13.18;;
68188;SDS011;66299;47.514;19.218;2024-02-28T05:10:15;28.30;;;13.52;;
68188;SDS011;66299;47.514;19.218;2024-02-28T05:12:45;26.95;;;13.70;;
68188;SDS011;66299;47.514;19.218;2024-02-28T05:15:14;27.10;;;14.18;;
68188;SDS011;66299;47.514;19.218;2024-02-28T05:17:44;31.42;;;13.43;;
68188;SDS011;66299;47.514;19.218;2024-02-28T05:20:15;25.15;;;13.23;;
68188;SDS011;66299;47.514;19.218;2024-02-28T05:22:43;26.80;;;13.75;;
68188;SDS011;66299;47.514;19.218;2024-02-28T05:25:12;26.67;;;13.18;;
68188;SDS011;66299;47.514;19.218;2024-02-28T05:27:41;28.55;;;12.90;;
68188;SDS011;66299;47.514;19.218;2024-02-28T05:30:12;29.73;;;12.75;;
68188;SDS011;66299;47.514;19.218;2024-02-28T05:32:41;28.05;;;13.23;;
68188;SDS011;66299;47.514;19.218;2024-02-28T05:35:09;26.00;;;12.90;;
68188;SDS011;66299;47.514;19.218;2024-02-28T05:37:39;28.05;;;13.43;;
68188;SDS011;66299;47.514;19.218;2024-02-28T05:40:08;23.42;;;12.60;;
68188;SDS011;66299;47.514;19.218;2024-02-28T05:42:39;27.58;;;13.00;;
68188;SDS011;66299;47.514;19.218;2024-02-28T05:45:09;26.73;;;12.57;;
68188;SDS011;66299;47.514;19.218;2024-02-28T05:47:40;28.40;;;13.18;;
68188;SDS011;66299;47.514;19.218;2024-02-28T05:50:09;28.35;;;13.10;;
68188;SDS011;66299;47.514;19.218;2024-02-28T05:52:41;27.10;;;12.73;;
68188;SDS011;66299;47.514;19.218;2024-02-28T05:55:12;25.95;;;13.05;;
68188;SDS011;66299;47.514;19.218;2024-02-28T05:57:40;24.65;;;12.60;;
68188;SDS011;66299;47.514;19.218;2024-02-28T06:00:09;25.13;;;12.45;;
68188;SDS011;66299;47.514;19.218;2024-02-28T06:02:40;25.75;;;12.85;;
68188;SDS011;66299;47.514;19.218;2024-02-28T06:05:08;29.67;;;14.43;;
68188;SDS011;66299;47.514;19.218;2024-02-28T06:07:37;28.88;;;14.75;;
68188;SDS011;66299;47.514;19.218;2024-02-28T06:10:05;27.30;;;14.45;;
68188;SDS011;66299;47.514;19.218;2024-02-28T06:12:35;31.05;;;15.45;;
68188;SDS011;66299;47.514;19.218;2024-02-28T06:15:05;31.55;;;14.57;;
68188;SDS011;66299;47.514;19.218;2024-02-28T06:17:34;32.05;;;15.82;;
68188;SDS011;66299;47.514;19.218;2024-02-28T06:20:04;32.30;;;15.82;;
68188;SDS011;66299;47.514;19.218;2024-02-28T06:22:36;31.27;;;14.15;;
68188;SDS011;66299;47.514;19.218;2024-02-28T06:25:06;28.52;;;13.85;;
68188;SDS011;66299;47.514;19.218;2024-02-28T06:27:41;31.63;;;14.15;;
68188;SDS011;66299;47.514;19.218;2024-02-28T06:30:10;25.67;;;13.32;;
68188;SDS011;66299;47.514;19.218;2024-02-28T06:32:39;34.53;;;14.07;;
68188;SDS011;66299;47.514;19.218;2024-02-28T06:35:10;29.17;;;14.13;;
68188;SDS011;66299;47.514;19.218;2024-02-28T06:37:40;29.92;;;14.10;;
68188;SDS011;66299;47.514;19.218;2024-02-28T06:40:09;28.95;;;15.07;;
68188;SDS011;66299;47.514;19.218;2024-02-28T06:42:37;37.10;;;16.73;;
68188;SDS011;66299;47.514;19.218;2024-02-28T06:45:08;40.42;;;20.88;;
68188;SDS011;66299;47.514;19.218;2024-02-28T06:47:37;59.22;;;23.17;;
68188;SDS011;66299;47.514;19.218;2024-02-28T06:50:05;36.85;;;17.95;;
68188;SDS011;66299;47.514;19.218;2024-02-28T06:52:36;36.25;;;15.70;;
68188;SDS011;66299;47.514;19.218;2024-02-28T06:55:05;28.30;;;14.57;;
68188;SDS011;66299;47.514;19.218;2024-02-28T06:57:39;27.85;;;14.27;;
68188;SDS011;66299;47.514;19.218;2024-02-28T07:00:09;27.33;;;13.68;;
68188;SDS011;66299;47.514;19.218;2024-02-28T07:02:39;34.05;;;14.57;;
68188;SDS011;66299;47.514;19.218;2024-02-28T07:05:07;30.15;;;14.15;;
68188;SDS011;66299;47.514;19.218;2024-02-28T07:07:37;31.83;;;13.93;;
68188;SDS011;66299;47.514;19.218;2024-02-28T07:10:07;33.83;;;14.50;;
68188;SDS011;66299;47.514;19.218;2024-02-28T07:12:35;27.75;;;13.93;;
68188;SDS011;66299;47.514;19.218;2024-02-28T07:15:04;30.98;;;13.82;;
68188;SDS011;66299;47.514;19.218;2024-02-28T07:17:32;29.15;;;14.60;;
68188;SDS011;66299;47.514;19.218;2024-02-28T07:20:01;33.00;;;15.30;;
68188;SDS011;66299;47.514;19.218;2024-02-28T07:22:30;37.45;;;17.10;;
68188;SDS011;66299;47.514;19.218;2024-02-28T07:25:00;37.97;;;18.65;;
68188;SDS011;66299;47.514;19.218;2024-02-28T07:27:28;34.53;;;16.75;;
68188;SDS011;66299;47.514;19.218;2024-02-28T07:29:57;44.90;;;22.63;;
68188;SDS011;66299;47.514;19.218;2024-02-28T07:32:25;44.67;;;21.77;;
68188;SDS011;66299;47.514;19.218;2024-02-28T07:34:53;48.95;;;20.13;;
68188;SDS011;66299;47.514;19.218;2024-02-28T07:37:24;28.95;;;15.00;;
68188;SDS011;66299;47.514;19.218;2024-02-28T07:39:53;31.33;;;15.13;;
68188;SDS011;66299;47.514;19.218;2024-02-28T07:42:23;29.20;;;14.10;;
68188;SDS011;66299;47.514;19.218;2024-02-28T07:44:51;36.17;;;14.80;;
68188;SDS011;66299;47.514;19.218;2024-02-28T07:47:24;36.30;;;15.57;;
68188;SDS011;66299;47.514;19.218;2024-02-28T07:49:52;26.92;;;12.88;;
68188;SDS011;66299;47.514;19.218;2024-02-28T07:52:23;31.10;;;13.48;;
68188;SDS011;66299;47.514;19.218;2024-02-28T07:54:53;27.48;;;13.00;;
68188;SDS011;66299;47.514;19.218;2024-02-28T07:57:25;29.77;;;13.23;;
68188;SDS011;66299;47.514;19.218;2024-02-28T07:59:54;27.40;;;12.75;;
68188;SDS011;66299;47.514;19.218;2024-02-28T08:02:25;27.27;;;12.70;;
68188;SDS011;66299;47.514;19.218;2024-02-28T08:04:54;26.30;;;12.13;;
68188;SDS011;66299;47.514;19.218;2024-02-28T08:07:23;27.80;;;12.85;;
68188;SDS011;66299;47.514;19.218;2024-02-28T08:09:52;25.63;;;12.40;;
68188;SDS011;66299;47.514;19.218;2024-02-28T08:12:22;26.40;;;12.63;;
68188;SDS011;66299;47.514;19.218;2024-02-28T08:14:51;30.27;;;11.27;;
68188;SDS011;66299;47.514;19.218;2024-02-28T08:17:20;26.80;;;11.90;;
68188;SDS011;66299;47.514;19.218;2024-02-28T08:19:49;25.23;;;11.65;;
68188;SDS011;66299;47.514;19.218;2024-02-28T08:22:18;22.98;;;10.80;;
68188;SDS011;66299;47.514;19.218;2024-02-28T08:24:46;25.38;;;11.45;;
68188;SDS011;66299;47.514;19.218;2024-02-28T08:27:19;26.73;;;11.10;;
68188;SDS011;66299;47.514;19.218;2024-02-28T08:29:51;24.50;;;11.10;;
68188;SDS011;66299;47.514;19.218;2024-02-28T08:32:20;24.77;;;11.25;;
68188;SDS011;66299;47.514;19.218;2024-02-28T08:34:48;29.75;;;10.80;;
68188;SDS011;66299;47.514;19.218;2024-02-28T08:37:17;26.15;;;11.18;;
68188;SDS011;66299;47.514;19.218;2024-02-28T08:39:45;26.85;;;11.38;;
68188;SDS011;66299;47.514;19.218;2024-02-28T08:42:14;23.80;;;11.10;;
68188;SDS011;66299;47.514;19.218;2024-02-28T08:44:42;26.27;;;11.40;;
68188;SDS011;66299;47.514;19.218;2024-02-28T08:47:12;26.13;;;11.10;;
68188;SDS011;66299;47.514;19.218;2024-02-28T08:49:41;23.52;;;11.40;;
68188;SDS011;66299;47.514;19.218;2024-02-28T08:52:10;25.48;;;11.80;;
68188;SDS011;66299;47.514;19.218;2024-02-28T08:54:39;24.20;;;11.25;;
68188;SDS011;66299;47.514;19.218;2024-02-28T08:57:08;27.30;;;11.60;;
68188;SDS011;66299;47.514;19.218;2024-02-28T08:59:38;29.48;;;11.68;;
68188;SDS011;66299;47.514;19.218;2024-02-28T09:02:07;21.85;;;11.75;;
68188;SDS011;66299;47.514;19.218;2024-02-28T09:04:39;23.08;;;12.05;;
68188;SDS011;66299;47.514;19.218;2024-02-28T09:07:09;25.85;;;13.35;;
68188;SDS011;66299;47.514;19.218;2024-02-28T09:09:41;25.67;;;12.25;;
68188;SDS011;66299;47.514;19.218;2024-02-28T09:12:11;25.95;;;11.98;;
68188;SDS011;66299;47.514;19.218;2024-02-28T09:14:41;26.17;;;11.75;;
68188;SDS011;66299;47.514;19.218;2024-02-28T09:17:11;27.02;;;12.18;;
68188;SDS011;66299;47.514;19.218;2024-02-28T09:19:41;28.27;;;12.55;;
68188;SDS011;66299;47.514;19.218;2024-02-28T09:22:11;21.83;;;10.88;;
68188;SDS011;66299;47.514;19.218;2024-02-28T09:24:42;27.08;;;11.93;;
68188;SDS011;66299;47.514;19.218;2024-02-28T09:27:11;24.15;;;11.90;;
68188;SDS011;66299;47.514;19.218;2024-02-28T09:29:40;26.02;;;11.18;;
68188;SDS011;66299;47.514;19.218;2024-02-28T09:32:08;25.58;;;11.30;;
68188;SDS011;66299;47.514;19.218;2024-02-28T09:34:38;22.38;;;10.85;;
68188;SDS011;66299;47.514;19.218;2024-02-28T09:37:11;26.95;;;10.77;;
68188;SDS011;66299;47.514;19.218;2024-02-28T09:39:40;23.15;;;11.20;;
68188;SDS011;66299;47.514;19.218;2024-02-28T09:42:09;26.33;;;10.95;;
68188;SDS011;66299;47.514;19.218;2024-02-28T09:44:38;24.42;;;11.45;;
68188;SDS011;66299;47.514;19.218;2024-02-28T09:47:08;24.95;;;11.38;;
68188;SDS011;66299;47.514;19.218;2024-02-28T09:49:37;23.10;;;10.85;;
68188;SDS011;66299;47.514;19.218;2024-02-28T09:52:05;25.63;;;10.70;;
68188;SDS011;66299;47.514;19.218;2024-02-28T09:54:37;27.77;;;10.95;;
68188;SDS011;66299;47.514;19.218;2024-02-28T09:57:06;23.98;;;10.73;;
68188;SDS011;66299;47.514;19.218;2024-02-28T09:59:34;27.48;;;10.90;;
68188;SDS011;66299;47.514;19.218;2024-02-28T10:02:19;25.13;;;10.75;;
68188;SDS011;66299;47.514;19.218;2024-02-28T10:04:49;25.48;;;10.27;;
68188;SDS011;66299;47.514;19.218;2024-02-28T10:07:19;23.92;;;10.82;;
68188;SDS011;66299;47.514;19.218;2024-02-28T10:09:50;26.30;;;10.82;;
68188;SDS011;66299;47.514;19.218;2024-02-28T10:12:21;28.13;;;10.80;;
68188;SDS011;66299;47.514;19.218;2024-02-28T10:14:49;24.38;;;10.65;;
68188;SDS011;66299;47.514;19.218;2024-02-28T10:17:20;24.42;;;10.82;;
68188;SDS011;66299;47.514;19.218;2024-02-28T10:22:20;22.85;;;10.52;;
68188;SDS011;66299;47.514;19.218;2024-02-28T10:24:56;23.08;;;10.15;;
68188;SDS011;66299;47.514;19.218;2024-02-28T10:27:25;26.98;;;11.32;;
68188;SDS011;66299;47.514;19.218;2024-02-28T10:29:53;20.58;;;10.63;;
68188;SDS011;66299;47.514;19.218;2024-02-28T10:32:22;24.63;;;10.82;;
68188;SDS011;66299;47.514;19.218;2024-02-28T10:34:52;20.05;;;10.40;;
68188;SDS011;66299;47.514;19.218;2024-02-28T10:37:21;19.90;;;10.60;;
68188;SDS011;66299;47.514;19.218;2024-02-28T10:39:52;25.05;;;10.98;;
68188;SDS011;66299;47.514;19.218;2024-02-28T10:42:25;23.13;;;10.30;;
68188;SDS011;66299;47.514;19.218;2024-02-28T10:44:57;19.67;;;10.38;;
68188;SDS011;66299;47.514;19.218;2024-02-28T10:47:44;21.15;;;11.05;;
68188;SDS011;66299;47.514;19.218;2024-02-28T10:50:16;24.67;;;11.18;;
68188;SDS011;66299;47.514;19.218;2024-02-28T10:52:46;25.85;;;10.38;;
68188;SDS011;66299;47.514;19.218;2024-02-28T10:55:22;23.42;;;11.25;;
68188;SDS011;66299;47.514;19.218;2024-02-28T10:57:58;23.50;;;10.95;;
68188;SDS011;66299;47.514;19.218;2024-02-28T11:00:32;23.45;;;10.85;;
68188;SDS011;66299;47.514;19.218;2024-02-28T11:03:04;24.38;;;11.30;;
68188;SDS011;66299;47.514;19.218;2024-02-28T11:05:39;25.45;;;10.68;;
68188;SDS011;66299;47.514;19.218;2024-02-28T11:08:09;22.30;;;10.27;;
68188;SDS011;66299;47.514;19.218;2024-02-28T11:10:44;22.75;;;11.43;;
68188;SDS011;66299;47.514;19.218;2024-02-28T11:13:21;22.98;;;10.68;;
68188;SDS011;66299;47.514;19.218;2024-02-28T11:15:53;27.00;;;12.57;;
68188;SDS011;66299;47.514;19.218;2024-02-28T11:18:23;24.77;;;11.13;;
68188;SDS011;66299;47.514;19.218;2024-02-28T11:20:53;24.35;;;11.40;;
68188;SDS011;66299;47.514;19.218;2024-02-28T11:23:22;26.52;;;11.98;;
68188;SDS011;66299;47.514;19.218;2024-02-28T11:25:56;23.73;;;12.23;;
68188;SDS011;66299;47.514;19.218;2024-02-28T11:28:25;21.92;;;11.25;;
68188;SDS011;66299;47.514;19.218;2024-02-28T11:30:56;24.90;;;10.80;;
68188;SDS011;66299;47.514;19.218;2024-02-28T11:33:27;21.90;;;11.13;;
68188;SDS011;66299;47.514;19.218;2024-02-28T11:35:56;25.05;;;11.43;;
68188;SDS011;66299;47.514;19.218;2024-02-28T11:38:25;23.42;;;12.07;;
68188;SDS011;66299;47.514;19.218;2024-02-28T11:40:58;28.17;;;11.20;;
68188;SDS011;66299;47.514;19.218;2024-02-28T11:43:27;22.95;;;11.98;;
68188;SDS011;66299;47.514;19.218;2024-02-28T11:45:57;24.02;;;11.82;;
68188;SDS011;66299;47.514;19.218;2024-02-28T11:48:28;24.80;;;12.18;;
68188;SDS011;66299;47.514;19.218;2024-02-28T11:51:00;23.42;;;10.45;;
68188;SDS011;66299;47.514;19.218;2024-02-28T11:53:29;25.73;;;11.48;;
68188;SDS011;66299;47.514;19.218;2024-02-28T11:56:00;22.42;;;11.10;;
68188;SDS011;66299;47.514;19.218;2024-02-28T11:58:31;23.45;;;10.77;;
68188;SDS011;66299;47.514;19.218;2024-02-28T12:01:01;24.33;;;10.65;;
68188;SDS011;66299;47.514;19.218;2024-02-28T12:03:31;24.85;;;11.38;;
68188;SDS011;66299;47.514;19.218;2024-02-28T12:06:01;21.92;;;10.95;;
68188;SDS011;66299;47.514;19.218;2024-02-28T12:08:30;24.98;;;10.40;;
68188;SDS011;66299;47.514;19.218;2024-02-28T12:11:09;21.63;;;11.05;;
68188;SDS011;66299;47.514;19.218;2024-02-28T12:13:38;21.80;;;10.70;;
68188;SDS011;66299;47.514;19.218;2024-02-28T12:16:07;21.42;;;10.35;;
68188;SDS011;66299;47.514;19.218;2024-02-28T12:18:38;22.38;;;10.45;;
68188;SDS011;66299;47.514;19.218;2024-02-28T12:21:08;21.35;;;10.80;;
68188;SDS011;66299;47.514;19.218;2024-02-28T12:23:37;25.67;;;10.95;;
68188;SDS011;66299;47.514;19.218;2024-02-28T12:26:09;24.95;;;11.43;;
68188;SDS011;66299;47.514;19.218;2024-02-28T12:28:39;26.02;;;11.00;;
68188;SDS011;66299;47.514;19.218;2024-02-28T12:31:11;24.35;;;10.27;;
68188;SDS011;66299;47.514;19.218;2024-02-28T12:33:44;21.83;;;10.68;;
68188;SDS011;66299;47.514;19.218;2024-02-28T12:36:15;25.08;;;10.88;;
68188;SDS011;66299;47.514;19.218;2024-02-28T12:38:45;24.52;;;10.80;;
68188;SDS011;66299;47.514;19.218;2024-02-28T12:41:16;20.65;;;10.60;;
68188;SDS011;66299;47.514;19.218;2024-02-28T12:43:46;21.52;;;11.02;;
68188;SDS011;66299;47.514;19.218;2024-02-28T12:46:17;22.92;;;10.43;;
68188;SDS011;66299;47.514;19.218;2024-02-28T12:48:47;24.17;;;11.55;;
68188;SDS011;66299;47.514;19.218;2024-02-28T12:51:20;22.00;;;10.93;;
68188;SDS011;66299;47.514;19.218;2024-02-28T12:54:06;21.05;;;10.52;;
68188;SDS011;66299;47.514;19.218;2024-02-28T12:56:37;23.48;;;10.95;;
68188;SDS011;66299;47.514;19.218;2024-02-28T12:59:10;21.33;;;10.43;;
68188;SDS011;66299;47.514;19.218;2024-02-28T13:01:40;20.08;;;10.18;;
68188;SDS011;66299;47.514;19.218;2024-02-28T13:06:41;22.80;;;10.85;;
68188;SDS011;66299;47.514;19.218;2024-02-28T13:09:11;21.30;;;10.55;;
68188;SDS011;66299;47.514;19.218;2024-02-28T13:11:44;26.23;;;10.25;;
68188;SDS011;66299;47.514;19.218;2024-02-28T13:14:13;25.30;;;10.67;;
68188;SDS011;66299;47.514;19.218;2024-02-28T13:16:42;22.98;;;11.10;;
68188;SDS011;66299;47.514;19.218;2024-02-28T13:19:12;20.25;;;10.70;;
68188;SDS011;66299;47.514;19.218;2024-02-28T13:21:43;23.13;;;10.25;;
68188;SDS011;66299;47.514;19.218;2024-02-28T13:24:15;22.83;;;10.70;;
68188;SDS011;66299;47.514;19.218;2024-02-28T13:26:46;21.23;;;10.18;;
68188;SDS011;66299;47.514;19.218;2024-02-28T13:29:17;25.17;;;10.20;;
68188;SDS011;66299;47.514;19.218;2024-02-28T13:31:51;24.23;;;10.65;;
68188;SDS011;66299;47.514;19.218;2024-02-28T13:34:21;23.63;;;10.45;;
68188;SDS011;66299;47.514;19.218;2024-02-28T13:36:50;20.90;;;10.60;;
68188;SDS011;66299;47.514;19.218;2024-02-28T13:39:19;25.83;;;10.40;;
68188;SDS011;66299;47.514;19.218;2024-02-28T13:41:52;24.08;;;11.10;;
68188;SDS011;66299;47.514;19.218;2024-02-28T13:44:23;20.33;;;10.02;;
68188;SDS011;66299;47.514;19.218;2024-02-28T13:46:53;25.75;;;11.60;;
68188;SDS011;66299;47.514;19.218;2024-02-28T13:49:25;19.30;;;10.50;;
68188;SDS011;66299;47.514;19.218;2024-02-28T13:51:55;23.15;;;10.23;;
68188;SDS011;66299;47.514;19.218;2024-02-28T13:54:28;24.88;;;10.30;;
68188;SDS011;66299;47.514;19.218;2024-02-28T13:57:01;21.40;;;10.50;;
68188;SDS011;66299;47.514;19.218;2024-02-28T13:59:35;23.92;;;10.50;;
68188;SDS011;66299;47.514;19.218;2024-02-28T14:02:06;23.65;;;10.57;;
68188;SDS011;66299;47.514;19.218;2024-02-28T14:04:39;22.02;;;10.23;;
68188;SDS011;66299;47.514;19.218;2024-02-28T14:07:16;20.90;;;10.25;;
68188;SDS011;66299;47.514;19.218;2024-02-28T14:09:45;22.05;;;10.02;;
68188;SDS011;66299;47.514;19.218;2024-02-28T14:12:20;23.52;;;9.80;;
68188;SDS011;66299;47.514;19.218;2024-02-28T14:14:51;22.90;;;10.65;;
68188;SDS011;66299;47.514;19.218;2024-02-28T14:17:22;23.08;;;10.25;;
68188;SDS011;66299;47.514;19.218;2024-02-28T14:19:54;23.85;;;10.30;;
68188;SDS011;66299;47.514;19.218;2024-02-28T14:22:22;21.85;;;9.85;;
68188;SDS011;66299;47.514;19.218;2024-02-28T14:24:54;22.30;;;9.65;;
68188;SDS011;66299;47.514;19.218;2024-02-28T14:27:24;20.60;;;9.48;;
68188;SDS011;66299;47.514;19.218;2024-02-28T14:30:01;20.63;;;10.38;;
68188;SDS011;66299;47.514;19.218;2024-02-28T14:32:35;20.73;;;9.57;;